createdAt,value
2017-05-30T00:00:13.858Z,24.81
2017-05-30T00:01:23.903Z,24.85
2017-05-30T00:02:34.444Z,24.93
2017-05-30T00:03:44.425Z,24.96
2017-05-30T00:04:54.731Z,24.97
2017-05-30T00:06:05.016Z,24.96
2017-05-30T00:07:14.995Z,24.84
2017-05-30T00:08:25.542Z,24.89
2017-05-30T00:09:35.830Z,24.85
2017-05-30T00:10:46.110Z,24.88
2017-05-30T00:11:56.399Z,24.86
2017-05-30T00:13:06.364Z,24.88
2017-05-30T00:14:16.288Z,24.93
2017-05-30T00:15:26.262Z,24.86
2017-05-30T00:16:36.240Z,24.88
2017-05-30T00:17:46.223Z,24.85
2017-05-30T00:18:56.197Z,24.86
2017-05-30T00:20:06.424Z,24.89
2017-05-30T00:21:16.716Z,24.88
2017-05-30T00:22:27.000Z,24.85
2017-05-30T00:23:37.306Z,24.88
2017-05-30T00:24:47.609Z,24.86
2017-05-30T00:25:57.851Z,24.82
2017-05-30T00:27:07.823Z,24.85
2017-05-30T00:28:18.124Z,24.82
2017-05-30T00:29:28.415Z,24.85
2017-05-30T00:30:38.699Z,24.81
2017-05-30T00:31:49.299Z,24.82
2017-05-30T00:32:59.595Z,24.78
2017-05-30T00:34:09.571Z,24.81
2017-05-30T00:35:19.873Z,24.79
2017-05-30T00:36:30.158Z,24.77
2017-05-30T00:37:40.391Z,24.78
2017-05-30T00:38:50.689Z,24.85
2017-05-30T00:40:00.986Z,24.85
2017-05-30T00:41:11.276Z,24.75
2017-05-30T00:42:21.254Z,24.74
2017-05-30T00:43:31.790Z,24.84
2017-05-30T00:44:42.090Z,24.79
2017-05-30T00:45:52.387Z,24.79
2017-05-30T00:47:02.673Z,24.74
2017-05-30T00:48:12.979Z,24.79
2017-05-30T00:49:23.213Z,24.75
2017-05-30T00:50:33.498Z,24.84
2017-05-30T00:51:43.462Z,24.84
2017-05-30T00:52:53.749Z,24.74
2017-05-30T00:54:04.040Z,24.81
2017-05-30T00:55:14.576Z,24.78
2017-05-30T00:56:24.866Z,24.77
2017-05-30T00:57:35.160Z,24.79
2017-05-30T00:58:45.438Z,24.85
2017-05-30T00:59:55.731Z,24.82
2017-05-30T01:01:06.273Z,24.81
2017-05-30T01:02:16.557Z,24.84
2017-05-30T01:03:26.533Z,24.78
2017-05-30T01:04:36.918Z,24.71
2017-05-30T01:05:47.201Z,24.82
2017-05-30T01:06:57.416Z,24.77
2017-05-30T01:08:07.392Z,24.68
2017-05-30T01:09:17.678Z,24.69
2017-05-30T01:10:27.987Z,24.74
2017-05-30T01:11:38.288Z,24.71
2017-05-30T01:12:48.935Z,24.68
2017-05-30T01:13:58.956Z,24.68
2017-05-30T01:15:08.926Z,24.78
2017-05-30T01:16:19.223Z,24.75
2017-05-30T01:17:29.195Z,24.74
2017-05-30T01:18:39.424Z,24.74
2017-05-30T01:19:49.719Z,24.68
2017-05-30T01:21:00.054Z,24.71
2017-05-30T01:22:10.032Z,24.71
2017-05-30T01:23:20.001Z,24.78
2017-05-30T01:24:30.241Z,24.66
2017-05-30T01:25:40.214Z,24.62
2017-05-30T01:26:50.203Z,24.68
2017-05-30T01:28:00.493Z,24.69
2017-05-30T01:29:10.777Z,24.69
2017-05-30T01:30:21.324Z,24.75
2017-05-30T01:31:31.622Z,24.68
2017-05-30T01:32:41.916Z,24.63
2017-05-30T01:33:52.209Z,24.66
2017-05-30T01:35:02.185Z,24.66
2017-05-30T01:36:12.726Z,24.65
2017-05-30T01:37:22.393Z,24.68
2017-05-30T01:38:32.380Z,24.63
2017-05-30T01:39:42.666Z,24.74
2017-05-30T01:40:52.963Z,24.69
2017-05-30T01:42:03.180Z,24.71
2017-05-30T01:43:13.150Z,24.75
2017-05-30T01:44:23.446Z,24.62
2017-05-30T01:45:33.718Z,24.66
2017-05-30T01:46:43.690Z,24.63
2017-05-30T01:47:53.906Z,24.62
2017-05-30T01:49:04.207Z,24.66
2017-05-30T01:50:14.497Z,24.68
2017-05-30T01:51:24.780Z,24.62
2017-05-30T01:52:35.087Z,24.62
2017-05-30T01:53:45.683Z,24.61
2017-05-30T01:54:55.976Z,24.68
2017-05-30T01:56:06.268Z,24.61
2017-05-30T01:57:16.557Z,24.66
2017-05-30T01:58:26.845Z,24.65
2017-05-30T01:59:37.392Z,24.66
2017-05-30T02:00:47.364Z,24.65
2017-05-30T02:01:57.027Z,24.65
2017-05-30T02:03:06.999Z,24.66
2017-05-30T02:04:17.283Z,24.65
2017-05-30T02:05:27.830Z,24.74
2017-05-30T02:06:38.128Z,24.69
2017-05-30T02:07:48.409Z,24.69
2017-05-30T02:08:58.706Z,24.69
2017-05-30T02:10:08.680Z,24.69
2017-05-30T02:11:19.218Z,24.69
2017-05-30T02:12:29.507Z,24.68
2017-05-30T02:13:39.797Z,24.66
2017-05-30T02:14:49.771Z,24.68
2017-05-30T02:16:00.058Z,24.59
2017-05-30T02:17:10.283Z,24.53
2017-05-30T02:18:20.566Z,24.59
2017-05-30T02:19:30.857Z,24.69
2017-05-30T02:20:41.147Z,24.59
2017-05-30T02:21:51.439Z,24.59
2017-05-30T02:23:01.662Z,24.61
2017-05-30T02:24:11.954Z,24.66
2017-05-30T02:25:22.234Z,24.58
2017-05-30T02:26:32.202Z,24.53
2017-05-30T02:27:42.489Z,24.55
2017-05-30T02:28:52.708Z,24.53
2017-05-30T02:30:02.999Z,24.51
2017-05-30T02:31:12.977Z,24.51
2017-05-30T02:32:22.953Z,24.58
2017-05-30T02:33:33.235Z,24.53
2017-05-30T02:34:43.768Z,24.5
2017-05-30T02:35:54.055Z,24.55
2017-05-30T02:37:04.337Z,24.56
2017-05-30T02:38:14.620Z,24.55
2017-05-30T02:39:24.898Z,24.47
2017-05-30T02:40:35.437Z,24.61
2017-05-30T02:41:45.721Z,24.61
2017-05-30T02:42:56.000Z,24.5
2017-05-30T02:44:06.306Z,24.53
2017-05-30T02:45:16.602Z,24.55
2017-05-30T02:46:27.140Z,24.55
2017-05-30T02:47:37.112Z,24.55
2017-05-30T02:48:47.403Z,24.56
2017-05-30T02:49:57.685Z,24.56
2017-05-30T02:51:07.649Z,24.51
2017-05-30T02:52:18.186Z,24.51
2017-05-30T02:53:28.474Z,24.51
2017-05-30T02:54:38.756Z,24.58
2017-05-30T02:55:49.030Z,24.44
2017-05-30T02:56:59.322Z,24.55
2017-05-30T02:58:09.550Z,24.47
2017-05-30T02:59:19.840Z,24.51
2017-05-30T03:00:29.814Z,24.48
2017-05-30T03:01:40.094Z,24.58
2017-05-30T03:02:50.065Z,24.53
2017-05-30T03:04:00.614Z,24.47
2017-05-30T03:05:10.918Z,24.47
2017-05-30T03:06:21.204Z,24.51
2017-05-30T03:07:31.492Z,24.58
2017-05-30T03:08:41.776Z,24.53
2017-05-30T03:09:52.322Z,24.47
2017-05-30T03:11:02.609Z,24.55
2017-05-30T03:12:12.569Z,24.48
2017-05-30T03:13:22.543Z,24.5
2017-05-30T03:14:32.527Z,24.55
2017-05-30T03:15:42.758Z,24.47
2017-05-30T03:16:53.034Z,24.55
2017-05-30T03:18:03.326Z,24.48
2017-05-30T03:19:13.631Z,24.47
2017-05-30T03:20:23.913Z,24.46
2017-05-30T03:21:34.445Z,24.48
2017-05-30T03:22:44.738Z,24.5
2017-05-30T03:23:54.709Z,24.48
2017-05-30T03:25:04.992Z,24.44
2017-05-30T03:26:14.968Z,24.51
2017-05-30T03:27:25.522Z,24.47
2017-05-30T03:28:35.497Z,24.44
2017-05-30T03:29:45.779Z,24.47
2017-05-30T03:30:56.063Z,24.51
2017-05-30T03:32:06.358Z,24.44
2017-05-30T03:33:16.901Z,24.46
2017-05-30T03:34:26.869Z,24.48
2017-05-30T03:35:37.151Z,24.47
2017-05-30T03:36:47.127Z,24.55
2017-05-30T03:37:56.787Z,24.44
2017-05-30T03:39:07.331Z,24.48
2017-05-30T03:40:17.299Z,24.46
2017-05-30T03:41:27.586Z,24.55
2017-05-30T03:42:37.561Z,24.55
2017-05-30T03:43:47.845Z,24.56
2017-05-30T03:44:58.375Z,24.51
2017-05-30T03:46:08.662Z,24.55
2017-05-30T03:47:18.963Z,24.48
2017-05-30T03:48:29.246Z,24.56
2017-05-30T03:49:39.535Z,24.47
2017-05-30T03:50:49.758Z,24.53
2017-05-30T03:52:00.041Z,24.51
2017-05-30T03:53:10.323Z,24.58
2017-05-30T03:54:20.615Z,24.47
2017-05-30T03:55:30.900Z,24.58
2017-05-30T03:56:41.433Z,24.69
2017-05-30T03:57:51.758Z,24.66
2017-05-30T03:59:01.421Z,24.77
2017-05-30T04:00:11.701Z,24.82
2017-05-30T04:01:21.988Z,24.88
2017-05-30T04:02:32.215Z,24.82
2017-05-30T04:03:42.501Z,24.85
2017-05-30T04:04:52.481Z,24.84
2017-05-30T04:06:02.767Z,24.93
2017-05-30T04:07:13.059Z,24.88
2017-05-30T04:08:23.302Z,24.89
2017-05-30T04:09:32.972Z,24.99
2017-05-30T04:10:42.632Z,25.01
2017-05-30T04:11:52.917Z,25.04
2017-05-30T04:13:03.196Z,25.03
2017-05-30T04:14:13.785Z,24.99
2017-05-30T04:15:24.069Z,25.03
2017-05-30T04:16:34.351Z,25.06
2017-05-30T04:17:44.674Z,25.07
2017-05-30T04:18:54.960Z,25.09
2017-05-30T04:20:04.882Z,25.07
2017-05-30T04:21:15.159Z,25.24
2017-05-30T04:22:25.131Z,25.14
2017-05-30T04:23:35.425Z,25.19
2017-05-30T04:24:45.714Z,25.21
2017-05-30T04:25:55.629Z,25.22
2017-05-30T04:27:05.612Z,25.26
2017-05-30T04:28:15.899Z,25.15
2017-05-30T04:29:26.190Z,25.14
2017-05-30T04:30:36.522Z,25.24
2017-05-30T04:31:46.748Z,25.3
2017-05-30T04:32:57.097Z,25.21
2017-05-30T04:34:07.395Z,25.21
2017-05-30T04:35:17.684Z,25.26
2017-05-30T04:36:27.361Z,25.25
2017-05-30T04:37:37.902Z,25.22
2017-05-30T04:38:47.889Z,25.31
2017-05-30T04:39:58.175Z,25.34
2017-05-30T04:41:08.152Z,25.34
2017-05-30T04:42:18.128Z,25.37
2017-05-30T04:43:28.664Z,25.43
2017-05-30T04:44:38.644Z,25.46
2017-05-30T04:45:48.973Z,25.37
2017-05-30T04:46:59.252Z,25.48
2017-05-30T04:48:09.234Z,25.48
2017-05-30T04:49:19.820Z,25.48
2017-05-30T04:50:29.790Z,25.49
2017-05-30T04:51:39.782Z,25.49
2017-05-30T04:52:50.082Z,25.51
2017-05-30T04:54:00.378Z,25.51
2017-05-30T04:55:10.916Z,25.61
2017-05-30T04:56:20.585Z,25.68
2017-05-30T04:57:30.898Z,25.67
2017-05-30T04:58:40.877Z,25.73
2017-05-30T04:59:51.169Z,25.7
2017-05-30T05:01:01.722Z,25.74
2017-05-30T05:02:12.015Z,25.68
2017-05-30T05:03:21.977Z,25.83
2017-05-30T05:04:31.950Z,25.81
2017-05-30T05:05:42.247Z,25.74
2017-05-30T05:06:52.474Z,25.8
2017-05-30T05:08:02.757Z,25.88
2017-05-30T05:09:12.729Z,25.83
2017-05-30T05:10:23.023Z,25.93
2017-05-30T05:11:33.310Z,25.95
2017-05-30T05:12:43.858Z,25.91
2017-05-30T05:13:53.844Z,25.92
2017-05-30T05:15:03.828Z,25.93
2017-05-30T05:16:14.143Z,25.93
2017-05-30T05:17:24.439Z,25.99
2017-05-30T05:18:34.668Z,25.96
2017-05-30T05:19:44.643Z,26.07
2017-05-30T05:20:54.623Z,26.01
2017-05-30T05:22:04.598Z,26.03
2017-05-30T05:23:14.888Z,26.07
2017-05-30T05:24:25.476Z,26.04
2017-05-30T05:25:35.879Z,26.11
2017-05-30T05:26:46.279Z,26.03
2017-05-30T05:27:56.258Z,26.06
2017-05-30T05:29:06.545Z,26.06
2017-05-30T05:30:17.078Z,26.18
2017-05-30T05:31:27.422Z,26.13
2017-05-30T05:32:37.718Z,26.27
2017-05-30T05:33:48.027Z,26.33
2017-05-30T05:34:58.346Z,26.33
2017-05-30T05:36:08.911Z,26.41
2017-05-30T05:37:19.218Z,26.44
2017-05-30T05:38:29.207Z,26.48
2017-05-30T05:39:39.491Z,26.42
2017-05-30T05:40:49.792Z,26.37
2017-05-30T05:42:00.336Z,26.29
2017-05-30T05:43:10.313Z,26.33
2017-05-30T05:44:20.297Z,26.24
2017-05-30T05:45:30.279Z,26.15
2017-05-30T05:46:40.568Z,26.33
2017-05-30T05:47:51.107Z,26.29
2017-05-30T05:49:01.098Z,26.3
2017-05-30T05:50:11.401Z,26.44
2017-05-30T05:51:21.713Z,26.37
2017-05-30T05:52:32.000Z,26.39
2017-05-30T05:53:42.541Z,26.33
2017-05-30T05:54:52.851Z,26.31
2017-05-30T05:56:02.851Z,26.31
2017-05-30T05:57:13.146Z,26.29
2017-05-30T05:58:23.437Z,26.44
2017-05-30T05:59:33.975Z,26.78
2017-05-30T06:00:43.963Z,26.46
2017-05-30T06:01:53.951Z,26.31
2017-05-30T06:03:04.255Z,26.34
2017-05-30T06:04:13.945Z,26.3
2017-05-30T06:05:24.178Z,26.27
2017-05-30T06:06:34.479Z,26.31
2017-05-30T06:07:44.791Z,26.36
2017-05-30T06:08:55.125Z,26.3
2017-05-30T06:10:05.439Z,26.41
2017-05-30T06:11:16.035Z,26.37
2017-05-30T06:12:25.737Z,26.33
2017-05-30T06:13:35.741Z,26.36
2017-05-30T06:14:46.124Z,26.41
2017-05-30T06:15:56.428Z,26.37
2017-05-30T06:17:06.674Z,26.37
2017-05-30T06:18:16.673Z,26.45
2017-05-30T06:19:26.661Z,26.48
2017-05-30T06:20:36.665Z,26.37
2017-05-30T06:21:46.665Z,26.41
2017-05-30T06:22:57.277Z,26.34
2017-05-30T06:24:07.571Z,26.45
2017-05-30T06:25:17.553Z,26.37
2017-05-30T06:26:27.859Z,26.42
2017-05-30T06:27:38.163Z,26.55
2017-05-30T06:28:48.724Z,26.49
2017-05-30T06:29:59.048Z,26.46
2017-05-30T06:31:09.634Z,26.41
2017-05-30T06:32:19.949Z,26.41
2017-05-30T06:33:30.284Z,26.45
2017-05-30T06:34:40.841Z,26.51
2017-05-30T06:35:51.165Z,26.45
2017-05-30T06:37:01.475Z,26.42
2017-05-30T06:38:11.798Z,26.51
2017-05-30T06:39:21.820Z,26.48
2017-05-30T06:40:32.409Z,26.52
2017-05-30T06:41:42.727Z,26.55
2017-05-30T06:42:53.090Z,26.55
2017-05-30T06:44:03.633Z,26.52
2017-05-30T06:45:13.677Z,26.59
2017-05-30T06:46:24.243Z,26.55
2017-05-30T06:47:34.534Z,26.59
2017-05-30T06:48:44.845Z,26.48
2017-05-30T06:49:54.907Z,26.49
2017-05-30T06:51:04.901Z,26.51
2017-05-30T06:52:15.475Z,26.53
2017-05-30T06:53:25.770Z,26.48
2017-05-30T06:54:35.763Z,26.45
2017-05-30T06:55:46.160Z,26.42
2017-05-30T06:56:55.546Z,26.51
2017-05-30T06:58:06.170Z,26.6
2017-05-30T06:59:16.155Z,26.59
2017-05-30T07:00:26.464Z,26.6
2017-05-30T07:01:36.152Z,26.59
2017-05-30T07:02:46.461Z,26.61
2017-05-30T07:03:57.065Z,26.6
2017-05-30T07:05:07.411Z,26.59
2017-05-30T07:06:17.718Z,26.61
2017-05-30T07:07:27.744Z,26.59
2017-05-30T07:08:37.747Z,26.53
2017-05-30T07:09:48.313Z,26.49
2017-05-30T07:10:58.315Z,26.51
2017-05-30T07:12:08.617Z,26.6
2017-05-30T07:13:18.925Z,26.64
2017-05-30T07:14:28.925Z,26.64
2017-05-30T07:15:39.183Z,26.64
2017-05-30T07:16:49.246Z,26.61
2017-05-30T07:17:59.247Z,26.52
2017-05-30T07:19:09.549Z,26.49
2017-05-30T07:20:19.545Z,26.64
2017-05-30T07:21:29.813Z,26.6
2017-05-30T07:22:40.160Z,26.53
2017-05-30T07:23:50.472Z,26.68
2017-05-30T07:25:00.787Z,26.6
2017-05-30T07:26:11.082Z,26.68
2017-05-30T07:27:21.630Z,26.64
2017-05-30T07:28:31.940Z,26.53
2017-05-30T07:29:42.256Z,26.59
2017-05-30T07:30:52.238Z,26.61
2017-05-30T07:32:02.532Z,26.68
2017-05-30T07:33:13.073Z,26.6
2017-05-30T07:34:23.371Z,26.64
2017-05-30T07:35:33.672Z,26.55
2017-05-30T07:36:43.972Z,26.64
2017-05-30T07:37:54.282Z,26.63
2017-05-30T07:39:04.530Z,26.61
2017-05-30T07:40:14.813Z,26.61
2017-05-30T07:41:24.809Z,26.6
2017-05-30T07:42:34.991Z,26.56
2017-05-30T07:43:45.299Z,26.6
2017-05-30T07:44:55.538Z,26.56
2017-05-30T07:46:05.522Z,26.61
2017-05-30T07:47:15.819Z,26.68
2017-05-30T07:48:25.811Z,26.7
2017-05-30T07:49:36.098Z,26.79
2017-05-30T07:50:46.326Z,26.76
2017-05-30T07:51:56.330Z,26.68
2017-05-30T07:53:06.629Z,26.68
2017-05-30T07:54:16.627Z,26.6
2017-05-30T07:55:26.926Z,26.79
2017-05-30T07:56:37.516Z,26.78
2017-05-30T07:57:47.807Z,26.74
2017-05-30T07:58:58.096Z,26.76
2017-05-30T08:00:08.419Z,26.73
2017-05-30T08:01:18.463Z,26.74
2017-05-30T08:02:29.033Z,26.73
2017-05-30T08:03:39.034Z,26.68
2017-05-30T08:04:49.069Z,26.74
2017-05-30T08:05:59.493Z,26.63
2017-05-30T08:07:09.871Z,26.67
2017-05-30T08:08:20.412Z,26.81
2017-05-30T08:09:30.467Z,26.81
2017-05-30T08:10:40.790Z,26.85
2017-05-30T08:11:51.030Z,26.85
2017-05-30T08:13:01.027Z,26.81
2017-05-30T08:14:11.601Z,26.79
2017-05-30T08:15:21.817Z,26.82
2017-05-30T08:16:32.120Z,26.73
2017-05-30T08:17:41.794Z,26.71
2017-05-30T08:18:52.135Z,26.66
2017-05-30T08:20:02.705Z,26.7
2017-05-30T08:21:13.093Z,26.73
2017-05-30T08:22:23.132Z,26.73
2017-05-30T08:23:33.447Z,26.64
2017-05-30T08:24:43.436Z,26.61
2017-05-30T08:25:53.669Z,26.59
2017-05-30T08:27:04.079Z,26.59
2017-05-30T08:28:13.761Z,26.68
2017-05-30T08:29:24.120Z,26.67
2017-05-30T08:30:34.133Z,26.74
2017-05-30T08:31:44.709Z,26.78
2017-05-30T08:32:55.074Z,26.73
2017-05-30T08:34:05.444Z,26.79
2017-05-30T08:35:15.739Z,26.79
2017-05-30T08:36:26.134Z,26.82
2017-05-30T08:37:36.077Z,26.79
2017-05-30T08:38:45.759Z,26.79
2017-05-30T08:39:55.762Z,26.7
2017-05-30T08:41:05.808Z,26.73
2017-05-30T08:42:16.112Z,26.71
2017-05-30T08:43:26.375Z,26.66
2017-05-30T08:44:36.668Z,26.67
2017-05-30T08:45:46.699Z,26.71
2017-05-30T08:46:57.018Z,26.68
2017-05-30T08:48:07.029Z,26.78
2017-05-30T08:49:17.593Z,26.7
2017-05-30T08:50:27.581Z,26.81
2017-05-30T08:51:37.892Z,26.82
2017-05-30T08:52:47.890Z,26.73
2017-05-30T08:53:58.203Z,26.81
2017-05-30T08:55:08.780Z,26.73
2017-05-30T08:56:18.759Z,26.81
2017-05-30T08:57:28.750Z,26.86
2017-05-30T08:58:39.069Z,26.89
2017-05-30T08:59:49.417Z,26.97
2017-05-30T09:00:59.666Z,26.91
2017-05-30T09:02:09.963Z,26.88
2017-05-30T09:03:20.268Z,26.74
2017-05-30T09:04:30.567Z,26.74
2017-05-30T09:05:40.541Z,26.67
2017-05-30T09:06:51.076Z,26.66
2017-05-30T09:08:01.367Z,26.67
2017-05-30T09:09:11.676Z,26.7
2017-05-30T09:10:21.354Z,26.73
2017-05-30T09:11:31.338Z,26.68
2017-05-30T09:12:41.582Z,26.83
2017-05-30T09:13:51.555Z,26.93
2017-05-30T09:15:01.539Z,26.98
2017-05-30T09:16:11.844Z,26.96
2017-05-30T09:17:22.153Z,26.85
2017-05-30T09:18:32.713Z,26.79
2017-05-30T09:19:43.010Z,26.78
2017-05-30T09:20:53.011Z,26.81
2017-05-30T09:22:03.291Z,26.74
2017-05-30T09:23:13.336Z,26.67
2017-05-30T09:24:23.888Z,26.79
2017-05-30T09:25:34.235Z,26.68
2017-05-30T09:26:44.555Z,26.73
2017-05-30T09:27:54.574Z,26.89
2017-05-30T09:29:04.868Z,26.86
2017-05-30T09:30:15.443Z,26.83
2017-05-30T09:31:25.739Z,26.73
2017-05-30T09:32:35.712Z,26.91
2017-05-30T09:33:45.697Z,26.89
2017-05-30T09:34:55.687Z,26.92
2017-05-30T09:36:05.932Z,26.91
2017-05-30T09:37:15.925Z,27.01
2017-05-30T09:38:25.903Z,26.92
2017-05-30T09:39:36.202Z,26.93
2017-05-30T09:40:46.193Z,26.89
2017-05-30T09:41:56.114Z,26.92
2017-05-30T09:43:06.414Z,27
2017-05-30T09:44:16.724Z,27
2017-05-30T09:45:27.046Z,26.97
2017-05-30T09:46:37.046Z,27.04
2017-05-30T09:47:46.983Z,27.03
2017-05-30T09:48:56.909Z,27
2017-05-30T09:50:07.202Z,27
2017-05-30T09:51:17.198Z,26.97
2017-05-30T09:52:27.496Z,27.04
2017-05-30T09:53:38.028Z,27
2017-05-30T09:54:48.340Z,26.97
2017-05-30T09:55:58.369Z,27.03
2017-05-30T09:57:08.383Z,27.05
2017-05-30T09:58:18.383Z,26.98
2017-05-30T09:59:28.954Z,26.88
2017-05-30T10:00:38.964Z,26.97
2017-05-30T10:01:49.300Z,26.91
2017-05-30T10:02:59.638Z,27.01
2017-05-30T10:04:09.949Z,27.03
2017-05-30T10:05:20.488Z,27.03
2017-05-30T10:06:30.188Z,27
2017-05-30T10:07:40.173Z,27.01
2017-05-30T10:08:50.462Z,27
2017-05-30T10:10:00.749Z,27.01
2017-05-30T10:11:11.286Z,27.03
2017-05-30T10:12:21.590Z,27.03
2017-05-30T10:13:31.584Z,27.04
2017-05-30T10:14:41.567Z,27
2017-05-30T10:15:51.859Z,27.05
2017-05-30T10:17:02.091Z,27.19
2017-05-30T10:18:12.380Z,27.19
2017-05-30T10:19:22.686Z,27.13
2017-05-30T10:20:32.676Z,27.2
2017-05-30T10:21:42.350Z,27.19
2017-05-30T10:22:52.586Z,27.34
2017-05-30T10:24:02.884Z,27.52
2017-05-30T10:25:13.190Z,27.52
2017-05-30T10:26:23.489Z,27.48
2017-05-30T10:27:33.468Z,27.55
2017-05-30T10:28:43.385Z,27.68
2017-05-30T10:29:53.674Z,27.79
2017-05-30T10:31:03.984Z,27.94
2017-05-30T10:32:14.259Z,27.94
2017-05-30T10:33:24.240Z,28.06
2017-05-30T10:34:34.469Z,28
2017-05-30T10:35:44.767Z,28.06
2017-05-30T10:36:55.074Z,27.98
2017-05-30T10:38:05.052Z,27.94
2017-05-30T10:39:15.360Z,28.06
2017-05-30T10:40:25.910Z,28.18
2017-05-30T10:41:35.902Z,28.15
2017-05-30T10:42:45.880Z,28.16
2017-05-30T10:43:56.185Z,28.09
2017-05-30T10:45:06.478Z,28.09
2017-05-30T10:46:17.028Z,28.3
2017-05-30T10:47:27.309Z,28.34
2017-05-30T10:48:36.981Z,28.27
2017-05-30T10:49:46.969Z,28.16
2017-05-30T10:50:57.264Z,28.25
2017-05-30T10:52:07.813Z,28.12
2017-05-30T10:53:18.124Z,28.22
2017-05-30T10:54:28.414Z,28.16
2017-05-30T10:55:38.395Z,28.13
2017-05-30T10:56:48.704Z,28.16
2017-05-30T10:57:59.247Z,28.08
2017-05-30T10:59:09.527Z,28.06
2017-05-30T11:00:19.844Z,27.91
2017-05-30T11:01:30.144Z,27.79
2017-05-30T11:02:40.463Z,27.85
2017-05-30T11:03:50.996Z,27.68
2017-05-30T11:05:01.295Z,27.61
2017-05-30T11:06:11.585Z,27.73
2017-05-30T11:07:21.560Z,27.76
2017-05-30T11:08:31.575Z,27.6
2017-05-30T11:09:41.814Z,27.61
2017-05-30T11:10:51.469Z,27.55
2017-05-30T11:12:01.449Z,27.52
2017-05-30T11:13:11.783Z,27.48
2017-05-30T11:14:22.090Z,27.45
2017-05-30T11:15:32.332Z,27.35
2017-05-30T11:16:42.630Z,27.35
2017-05-30T11:17:52.290Z,27.26
2017-05-30T11:19:02.263Z,27.19
2017-05-30T11:20:12.556Z,27.2
2017-05-30T11:21:22.478Z,27.22
2017-05-30T11:22:32.773Z,27.13
2017-05-30T11:23:43.070Z,26.74
2017-05-30T11:24:53.051Z,26.46
2017-05-30T11:26:03.043Z,26.51
2017-05-30T11:27:13.278Z,26.23
2017-05-30T11:28:23.584Z,26.44
2017-05-30T11:29:33.908Z,26.45
2017-05-30T11:30:44.213Z,26.07
2017-05-30T11:31:54.516Z,25.43
2017-05-30T11:33:04.780Z,25.04
2017-05-30T11:34:14.763Z,24.75
2017-05-30T11:35:24.771Z,24.82
2017-05-30T11:36:34.754Z,24.82
2017-05-30T11:37:45.059Z,24.71
2017-05-30T11:38:55.290Z,24.16
2017-05-30T11:40:05.579Z,24.66
2017-05-30T11:41:15.573Z,25
2017-05-30T11:42:25.867Z,25.14
2017-05-30T11:43:35.845Z,25.44
2017-05-30T11:44:46.388Z,25.44
2017-05-30T11:45:56.743Z,25.44
2017-05-30T11:47:06.413Z,25.33
2017-05-30T11:48:16.713Z,25.51
2017-05-30T11:49:26.680Z,25.51
2017-05-30T11:50:37.252Z,25.44
2017-05-30T11:51:47.238Z,25.4
2017-05-30T11:52:56.906Z,25.49
2017-05-30T11:54:07.200Z,25.62
2017-05-30T11:55:17.175Z,25.56
2017-05-30T11:56:27.431Z,25.7
2017-05-30T11:57:37.713Z,25.66
2017-05-30T11:58:47.687Z,25.39
2017-05-30T11:59:57.662Z,25.4
2017-05-30T12:01:07.643Z,25.48
2017-05-30T12:02:17.872Z,25.51
2017-05-30T12:03:27.859Z,25.59
2017-05-30T12:04:38.201Z,25.62
2017-05-30T12:05:48.483Z,25.49
2017-05-30T12:06:58.768Z,25.54
2017-05-30T12:08:09.304Z,25.21
2017-05-30T12:09:19.597Z,25.3
2017-05-30T12:10:29.903Z,25.31
2017-05-30T12:11:40.194Z,25.33
2017-05-30T12:12:50.489Z,25.41
2017-05-30T12:14:00.739Z,25.51
2017-05-30T12:15:11.019Z,25.61
2017-05-30T12:16:21.312Z,25.68
2017-05-30T12:17:31.595Z,25.66
2017-05-30T12:18:41.265Z,25.44
2017-05-30T12:19:51.806Z,25.4
2017-05-30T12:21:02.124Z,25.21
2017-05-30T12:22:12.412Z,25.26
2017-05-30T12:23:22.701Z,25.36
2017-05-30T12:24:33.003Z,25.12
2017-05-30T12:25:43.231Z,25.36
2017-05-30T12:26:53.760Z,25.54
2017-05-30T12:28:04.051Z,25.44
2017-05-30T12:29:14.342Z,25.31
2017-05-30T12:30:24.654Z,25.44
2017-05-30T12:31:35.203Z,25.52
2017-05-30T12:32:45.185Z,25.63
2017-05-30T12:33:55.483Z,25.74
2017-05-30T12:35:05.459Z,25.85
2017-05-30T12:36:15.750Z,25.76
2017-05-30T12:37:26.277Z,25.86
2017-05-30T12:38:36.566Z,25.81
2017-05-30T12:39:46.564Z,25.83
2017-05-30T12:40:56.538Z,25.88
2017-05-30T12:42:06.838Z,25.92
2017-05-30T12:43:17.813Z,25.95
2017-05-30T12:44:28.111Z,26.06
2017-05-30T12:45:38.429Z,25.59
2017-05-30T12:46:48.745Z,25.56
2017-05-30T12:47:58.409Z,25.77
2017-05-30T12:49:08.641Z,25.8
2017-05-30T12:50:18.664Z,25.74
2017-05-30T12:51:28.961Z,25.73
2017-05-30T12:52:39.248Z,25.76
2017-05-30T12:53:49.571Z,25.86
2017-05-30T12:55:00.123Z,25.95
2017-05-30T12:56:10.102Z,25.95
2017-05-30T12:57:19.762Z,25.98
2017-05-30T12:58:30.066Z,25.99
2017-05-30T12:59:40.363Z,26.04
2017-05-30T13:00:50.910Z,26.15
2017-05-30T13:02:01.206Z,26.22
2017-05-30T13:03:11.510Z,26.22
2017-05-30T13:04:21.498Z,26.18
2017-05-30T13:05:31.790Z,26.3
2017-05-30T13:06:42.338Z,26.37
2017-05-30T13:07:52.633Z,26.3
2017-05-30T13:09:02.619Z,26.36
2017-05-30T13:10:12.944Z,26.37
2017-05-30T13:11:23.236Z,26.33
2017-05-30T13:12:33.805Z,26.29
2017-05-30T13:13:43.781Z,26.22
2017-05-30T13:14:53.445Z,26.01
2017-05-30T13:16:03.737Z,26.24
2017-05-30T13:17:13.721Z,26.26
2017-05-30T13:18:24.262Z,26.31
2017-05-30T13:19:34.565Z,26.34
2017-05-30T13:20:44.266Z,26.42
2017-05-30T13:21:54.577Z,26.42
2017-05-30T13:23:04.886Z,26.33
2017-05-30T13:24:15.450Z,26.42
2017-05-30T13:25:25.746Z,26.49
2017-05-30T13:26:36.038Z,26.51
2017-05-30T13:27:46.011Z,26.53
2017-05-30T13:28:56.312Z,26.52
2017-05-30T13:30:06.857Z,26.53
2017-05-30T13:31:16.842Z,26.59
2017-05-30T13:32:26.846Z,26.53
2017-05-30T13:33:37.166Z,26.59
2017-05-30T13:34:47.465Z,26.61
2017-05-30T13:35:57.714Z,26.59
2017-05-30T13:37:07.703Z,26.59
2017-05-30T13:38:18.010Z,26.6
2017-05-30T13:39:27.707Z,26.59
2017-05-30T13:40:38.018Z,26.59
2017-05-30T13:41:48.246Z,26.66
2017-05-30T13:42:58.537Z,26.67
2017-05-30T13:44:08.829Z,26.64
2017-05-30T13:45:18.812Z,26.7
2017-05-30T13:46:29.118Z,26.68
2017-05-30T13:47:39.677Z,26.61
2017-05-30T13:48:49.971Z,26.61
2017-05-30T13:50:00.275Z,26.68
2017-05-30T13:51:10.256Z,26.63
2017-05-30T13:52:20.562Z,26.66
2017-05-30T13:53:30.499Z,26.67
2017-05-30T13:54:40.791Z,26.61
2017-05-30T13:55:50.766Z,26.63
2017-05-30T13:57:01.064Z,26.6
2017-05-30T13:58:10.734Z,26.56
2017-05-30T13:59:21.279Z,26.64
2017-05-30T14:00:31.573Z,26.67
2017-05-30T14:01:41.863Z,26.7
2017-05-30T14:02:52.167Z,26.67
2017-05-30T14:04:02.139Z,26.68
2017-05-30T14:05:12.679Z,26.66
2017-05-30T14:06:22.656Z,26.66
2017-05-30T14:07:32.970Z,26.66
2017-05-30T14:08:43.249Z,26.68
2017-05-30T14:09:53.233Z,26.67
2017-05-30T14:11:04.107Z,26.71
2017-05-30T14:12:14.398Z,26.74
2017-05-30T14:13:24.690Z,26.81
2017-05-30T14:14:35.063Z,26.7
2017-05-30T14:15:45.374Z,26.67
2017-05-30T14:16:55.926Z,26.68
2017-05-30T14:18:06.208Z,26.68
2017-05-30T14:19:16.507Z,26.7
2017-05-30T14:20:26.499Z,26.76
2017-05-30T14:21:36.798Z,26.79
2017-05-30T14:22:47.347Z,26.67
2017-05-30T14:23:57.639Z,26.68
2017-05-30T14:25:07.618Z,26.79
2017-05-30T14:26:17.910Z,26.66
2017-05-30T14:27:27.585Z,26.68
2017-05-30T14:28:38.185Z,26.73
2017-05-30T14:29:48.491Z,26.78
2017-05-30T14:30:58.496Z,26.74
2017-05-30T14:32:08.787Z,26.74
2017-05-30T14:33:19.073Z,26.68
2017-05-30T14:34:29.622Z,26.74
2017-05-30T14:35:39.923Z,26.74
2017-05-30T14:36:50.225Z,26.76
2017-05-30T14:38:00.531Z,26.71
2017-05-30T14:39:10.825Z,26.74
2017-05-30T14:40:21.063Z,26.74
2017-05-30T14:41:31.048Z,26.73
2017-05-30T14:42:40.723Z,26.71
2017-05-30T14:43:51.033Z,26.73
2017-05-30T14:45:01.316Z,26.74
2017-05-30T14:46:11.915Z,26.79
2017-05-30T14:47:22.206Z,26.71
2017-05-30T14:48:32.516Z,26.76
2017-05-30T14:49:42.812Z,26.74
2017-05-30T14:50:52.491Z,26.76
2017-05-30T14:52:03.030Z,26.74
2017-05-30T14:53:13.332Z,26.78
2017-05-30T14:54:23.625Z,26.73
2017-05-30T14:55:33.638Z,26.73
2017-05-30T14:56:43.929Z,26.83
2017-05-30T14:57:54.474Z,26.79
2017-05-30T14:59:04.454Z,26.83
2017-05-30T15:00:14.756Z,26.79
2017-05-30T15:01:25.051Z,26.71
2017-05-30T15:02:35.353Z,26.74
2017-05-30T15:03:45.896Z,26.78
2017-05-30T15:04:56.184Z,26.76
2017-05-30T15:06:06.487Z,26.71
2017-05-30T15:07:16.791Z,26.73